Time;durP1;ratioP1;P1;durP2;ratioP2;P2;SDS_P1;SDS_P2;PMS_P1;PMS_P2;Temp;Humidity;BMP_temperature;BMP_pressure;BME280_temperature;BME280_humidity;BME280_pressure;Samples;Min_cycle;Max_cycle;Signal;HPM_P1;HPM_P2
2022/02/03 00:01:16;;;;;;;15.95;9.07;;;;;;;0.51;71.55;94768.22;5030789;28;20036;-76
2022/02/03 00:03:53;;;;;;;16.70;9.45;;;;;;;0.65;70.67;94771.47;5015104;28;20028;-76
2022/02/03 00:06:28;;;;;;;17.58;9.48;;;;;;;0.45;72.42;94774.03;5031494;28;20059;-78
2022/02/03 00:09:18;;;;;;;16.02;10.30;;;;;;;0.57;71.97;94770.31;5047046;28;20061;-76
2022/02/03 00:25:31;;;;;;;13.50;8.48;;;;;;;0.88;71.62;94781.84;5032083;28;20036;-76
2022/02/03 00:28:19;;;;;;;18.48;9.52;;;;;;;0.97;71.59;94794.25;5030349;28;20031;-76
2022/02/03 00:38:22;;;;;;;14.75;9.13;;;;;;;1.03;71.17;94793.69;5046502;28;20119;-76
2022/02/03 00:49:03;;;;;;;14.50;9.38;;;;;;;0.96;71.70;94809.28;5031735;28;20087;-77
2022/02/03 00:51:30;;;;;;;16.58;10.27;;;;;;;0.98;71.96;94812.59;5047528;28;20075;-75
2022/02/03 00:53:56;;;;;;;13.02;8.90;;;;;;;0.96;71.87;94818.97;5045093;28;20515;-76
2022/02/03 00:56:32;;;;;;;17.90;9.55;;;;;;;0.97;72.31;94818.00;5047591;28;20028;-76
2022/02/03 00:59:09;;;;;;;15.13;9.48;;;;;;;0.98;72.60;94819.69;5029679;28;20021;-76
2022/02/03 01:01:36;;;;;;;15.68;9.30;;;;;;;1.10;72.31;94826.53;5046719;28;20083;-78
2022/02/03 01:04:06;;;;;;;16.88;9.52;;;;;;;1.10;71.95;94820.41;5045470;28;20473;-77
2022/02/03 01:06:33;;;;;;;14.20;9.30;;;;;;;1.13;71.64;94820.16;5044920;28;20055;-75
2022/02/03 01:08:58;;;;;;;14.98;8.75;;;;;;;1.17;71.51;94820.72;5028907;28;20044;-77
2022/02/03 01:11:30;;;;;;;14.55;9.10;;;;;;;1.10;72.67;94817.78;5044787;28;20086;-75
2022/02/03 01:14:05;;;;;;;14.68;8.73;;;;;;;1.09;72.54;94819.59;5045752;28;20060;-76
2022/02/03 01:16:53;;;;;;;13.38;9.15;;;;;;;1.17;72.09;94826.00;5029960;28;20036;-76
2022/02/03 01:19:33;;;;;;;15.05;9.27;;;;;;;1.10;72.68;94826.53;5046445;28;20587;-76
2022/02/03 01:44:46;;;;;;;13.65;9.05;;;;;;;1.21;72.25;94808.94;5031332;28;20091;-76
2022/02/03 01:47:27;;;;;;;15.60;9.43;;;;;;;1.19;72.31;94818.78;5044806;28;20060;-76
2022/02/03 01:52:38;;;;;;;13.60;8.48;;;;;;;1.08;73.18;94825.84;5028650;28;20037;-76
2022/02/03 01:55:07;;;;;;;13.90;9.43;;;;;;;1.09;73.17;94822.25;5044002;28;20037;-76
2022/02/03 01:57:52;;;;;;;13.10;9.15;;;;;;;1.10;73.15;94825.69;5028547;28;20029;-77
2022/02/03 02:00:21;;;;;;;13.05;8.70;;;;;;;1.14;73.05;94823.63;5044848;28;20035;-76
2022/02/03 02:03:08;;;;;;;14.23;8.68;;;;;;;1.20;73.30;94831.03;5028167;28;20033;-75
2022/02/03 02:05:38;;;;;;;14.00;8.48;;;;;;;1.25;73.13;94834.09;5046764;28;20032;-75
2022/02/03 02:08:10;;;;;;;16.15;9.45;;;;;;;1.25;72.84;94839.38;5043946;28;20056;-75
2022/02/03 02:10:56;;;;;;;14.02;8.77;;;;;;;1.24;72.80;94840.38;5044848;28;20033;-75
2022/02/03 02:37:51;;;;;;;12.05;8.02;;;;;;;1.30;71.91;94870.69;5044133;28;20075;-75
2022/02/03 02:43:17;;;;;;;12.50;7.93;;;;;;;1.39;72.34;94875.16;5048067;28;20411;-77
2022/02/03 02:45:42;;;;;;;12.75;8.45;;;;;;;1.40;71.45;94876.84;5047935;28;20029;-76
2022/02/03 02:48:29;;;;;;;12.27;8.10;;;;;;;1.40;71.35;94870.72;5049625;28;20474;-77
2022/02/03 02:51:04;;;;;;;13.93;8.57;;;;;;;1.39;72.31;94879.63;5047703;28;20729;-76
2022/02/03 02:53:41;;;;;;;11.07;7.82;;;;;;;1.41;71.32;94875.03;5032537;28;20033;-77
2022/02/03 02:56:24;;;;;;;13.98;8.57;;;;;;;1.43;71.58;94881.88;5048757;28;20414;-76
2022/02/03 03:02:04;;;;;;;14.02;8.80;;;;;;;1.40;71.67;94889.22;5032231;28;20079;-76
2022/02/03 03:28:56;;;;;;;15.60;8.45;;;;;;;1.39;71.55;94892.84;5047369;28;20025;-75
2022/02/03 03:36:44;;;;;;;14.07;8.87;;;;;;;1.70;69.87;94927.16;5047882;28;20033;-76
2022/02/03 03:39:13;;;;;;;12.43;8.50;;;;;;;1.65;70.58;94939.94;5030337;28;20031;-77
2022/02/03 03:41:41;;;;;;;16.83;9.05;;;;;;;1.65;70.58;94938.13;5046827;28;20029;-75
2022/02/03 03:44:08;;;;;;;11.95;8.68;;;;;;;1.62;70.44;94935.75;5014437;28;20407;-76
2022/02/03 03:46:46;;;;;;;15.23;10.00;;;;;;;1.62;70.39;94948.13;5013649;28;20112;-75
2022/02/03 03:49:27;;;;;;;13.60;8.55;;;;;;;1.66;69.94;94947.72;5048852;28;20495;-74
2022/02/03 03:52:21;;;;;;;14.60;9.15;;;;;;;1.68;70.40;94955.53;5045949;28;20053;-76
2022/02/03 03:55:16;;;;;;;14.65;8.82;;;;;;;1.64;70.33;94946.22;5046719;28;20032;-75
2022/02/03 04:01:02;;;;;;;12.18;8.10;;;;;;;1.63;69.83;94953.28;5047352;28;20028;-75
2022/02/03 04:31:02;;;;;;;11.20;7.63;;;;;;;1.45;69.94;94998.03;5045975;28;20039;-76
2022/02/03 05:04:27;;;;;;;10.95;7.80;;;;;;;1.63;69.17;95047.66;5055735;28;20566;-77
2022/02/03 05:07:46;;;;;;;9.82;7.43;;;;;;;1.63;68.60;95059.03;5043754;28;20522;-76
2022/02/03 05:10:40;;;;;;;10.65;7.10;;;;;;;1.64;68.42;95073.09;5046676;28;20142;-77
2022/02/03 06:05:02;;;;;;;13.70;8.35;;;;;;;1.37;67.72;95177.53;5045636;28;20037;-75
2022/02/03 06:15:47;;;;;;;11.13;7.60;;;;;;;1.46;66.12;95188.19;5032108;28;20036;-75
2022/02/03 06:29:14;;;;;;;13.70;8.07;;;;;;;1.24;66.25;95215.53;5049222;28;20044;-76
2022/02/03 06:31:42;;;;;;;12.45;8.10;;;;;;;1.22;66.64;95223.59;5048092;28;20024;-77
2022/02/03 06:34:07;;;;;;;10.40;7.35;;;;;;;1.16;67.15;95212.69;5015455;28;20021;-77
2022/02/03 06:36:33;;;;;;;11.82;8.00;;;;;;;1.17;67.09;95222.28;5031607;28;20032;-76
2022/02/03 06:38:59;;;;;;;12.75;7.90;;;;;;;1.19;66.95;95230.94;5015083;28;20425;-77
2022/02/03 06:41:24;;;;;;;11.02;6.95;;;;;;;1.18;67.25;95230.06;5048069;28;20471;-76
2022/02/03 06:43:49;;;;;;;13.82;8.15;;;;;;;1.17;66.68;95240.78;5031229;28;20029;-76
2022/02/03 06:46:15;;;;;;;11.63;7.50;;;;;;;1.25;67.69;95243.63;5031884;28;20098;-78
2022/02/03 06:48:45;;;;;;;13.55;8.00;;;;;;;1.34;67.26;95256.09;5047621;28;20025;-77
2022/02/03 06:51:25;;;;;;;9.38;7.15;;;;;;;1.38;67.42;95254.06;5049528;28;20075;-76
2022/02/03 06:53:55;;;;;;;11.00;7.38;;;;;;;1.42;67.12;95254.66;5049206;28;20560;-76
2022/02/03 06:58:59;;;;;;;13.20;7.47;;;;;;;1.64;66.84;95255.53;5050010;28;20502;-77
2022/02/03 07:01:30;;;;;;;12.02;7.45;;;;;;;1.70;66.17;95257.66;5048473;28;20029;-77
2022/02/03 07:04:02;;;;;;;10.88;7.55;;;;;;;1.78;66.09;95259.69;5032756;28;20029;-75
2022/02/03 07:06:32;;;;;;;11.30;7.30;;;;;;;1.83;66.08;95263.63;5048510;28;20518;-75
2022/02/03 07:09:06;;;;;;;10.38;6.88;;;;;;;1.97;65.99;95261.63;5031510;28;20519;-76
2022/02/03 07:11:32;;;;;;;9.95;6.85;;;;;;;2.03;65.36;95263.75;5047588;28;20048;-74
2022/02/03 07:13:57;;;;;;;11.10;7.32;;;;;;;2.01;65.64;95263.06;5047341;28;20033;-76
2022/02/03 07:16:23;;;;;;;12.30;7.45;;;;;;;1.97;65.25;95261.63;5049052;28;20103;-77
2022/02/03 07:18:48;;;;;;;10.68;6.68;;;;;;;1.98;65.69;95265.97;5047269;28;20033;-77
2022/02/03 07:21:14;;;;;;;11.23;6.93;;;;;;;1.97;65.78;95269.56;5049262;28;20148;-77
2022/02/03 07:23:40;;;;;;;10.82;7.43;;;;;;;1.87;65.65;95272.13;5048156;28;20032;-76
2022/02/03 07:26:05;;;;;;;10.43;7.70;;;;;;;1.83;66.16;95284.78;5030049;28;20025;-78
2022/02/03 07:28:30;;;;;;;9.65;6.85;;;;;;;1.89;65.49;95280.78;5048361;28;20483;-77
2022/02/03 07:30:56;;;;;;;9.52;6.82;;;;;;;1.87;65.37;95297.75;5048675;28;20025;-76
2022/02/03 07:33:21;;;;;;;11.77;7.22;;;;;;;1.87;65.87;95301.22;5048616;28;20033;-76
2022/02/03 07:35:47;;;;;;;11.63;7.20;;;;;;;1.87;66.07;95300.41;5046916;28;20048;-76
2022/02/03 07:38:13;;;;;;;12.20;7.70;;;;;;;1.84;65.88;95302.31;5048940;28;20048;-78
2022/02/03 07:40:38;;;;;;;10.80;7.13;;;;;;;1.90;65.85;95306.28;5029677;28;20018;-76
2022/02/03 07:43:08;;;;;;;10.00;7.43;;;;;;;1.79;65.38;95312.44;5047463;28;20021;-75
2022/02/03 07:45:34;;;;;;;12.57;7.68;;;;;;;1.89;65.95;95304.59;5046611;28;20087;-76
2022/02/03 07:48:00;;;;;;;10.70;7.15;;;;;;;1.90;65.33;95311.59;5046970;28;20040;-78
2022/02/03 07:50:25;;;;;;;9.20;7.28;;;;;;;1.95;65.75;95329.72;5046740;28;20024;-76
2022/02/03 07:52:51;;;;;;;12.48;7.18;;;;;;;1.91;65.89;95336.19;5046618;28;20392;-75
2022/02/03 07:55:16;;;;;;;13.63;8.45;;;;;;;1.92;65.71;95332.63;5047201;28;20499;-75
2022/02/03 07:57:46;;;;;;;11.60;7.18;;;;;;;1.93;65.54;95339.56;5029603;28;20032;-78
2022/02/03 08:00:12;;;;;;;13.20;7.38;;;;;;;2.00;65.55;95343.38;5047236;28;20064;-79
2022/02/03 08:02:41;;;;;;;10.35;7.35;;;;;;;2.04;65.20;95331.59;5046298;28;20195;-77
2022/02/03 08:05:07;;;;;;;9.63;6.95;;;;;;;2.17;64.82;95342.00;5030672;28;20627;-76
2022/02/03 08:07:34;;;;;;;11.43;7.13;;;;;;;2.26;64.09;95352.81;5046158;28;20469;-77
2022/02/03 08:10:05;;;;;;;14.52;7.35;;;;;;;2.29;63.77;95350.72;5029755;28;20064;-77
2022/02/03 08:12:34;;;;;;;9.90;7.40;;;;;;;2.32;64.03;95358.41;5048132;28;20108;-76
2022/02/03 08:15:01;;;;;;;9.43;6.88;;;;;;;2.33;64.04;95356.59;5046049;28;20029;-77
2022/02/03 08:17:38;;;;;;;13.45;7.72;;;;;;;2.31;64.25;95363.81;5046826;28;20033;-77
2022/02/03 08:20:10;;;;;;;11.55;7.93;;;;;;;2.41;63.87;95367.41;5047289;28;20483;-77
2022/02/03 08:22:44;;;;;;;14.55;8.35;;;;;;;2.55;63.04;95368.88;5046174;28;20033;-76
2022/02/03 08:25:21;;;;;;;13.98;7.60;;;;;;;2.57;63.25;95377.53;5031117;28;20037;-77
2022/02/03 08:30:28;;;;;;;16.33;8.65;;;;;;;2.69;63.22;95380.13;5048221;28;20583;-76
2022/02/03 08:32:58;;;;;;;13.18;8.10;;;;;;;2.67;62.85;95382.06;5046909;28;20040;-77
2022/02/03 08:35:35;;;;;;;10.57;7.53;;;;;;;2.59;63.46;95388.84;5048085;28;20108;-76
2022/02/03 08:38:14;;;;;;;12.35;7.15;;;;;;;2.63;63.13;95383.31;5046043;28;20024;-77
2022/02/03 08:43:18;;;;;;;10.05;7.22;;;;;;;2.59;62.96;95407.41;5031510;28;20032;-77
2022/02/03 08:45:43;;;;;;;11.88;7.28;;;;;;;2.55;62.73;95398.00;5045174;28;20040;-77
2022/02/03 08:48:10;;;;;;;10.52;7.00;;;;;;;2.51;63.23;95401.03;5029487;28;20094;-77
2022/02/03 08:50:36;;;;;;;10.80;7.25;;;;;;;2.51;62.82;95406.34;5046742;28;20032;-77
2022/02/03 08:53:13;;;;;;;12.32;7.13;;;;;;;2.51;62.86;95409.84;5046859;28;20022;-77
2022/02/03 10:02:27;;;;;;;13.77;7.85;;;;;;;3.37;60.89;95460.16;5045020;28;20059;-78
2022/02/03 10:04:56;;;;;;;9.23;7.47;;;;;;;3.33;60.62;95460.44;5046407;28;20112;-76
2022/02/03 10:07:25;;;;;;;13.57;7.88;;;;;;;3.39;60.13;95474.09;5045951;28;20040;-76
2022/02/03 10:09:53;;;;;;;14.55;7.63;;;;;;;3.38;60.26;95467.13;5046113;28;20053;-76
2022/02/03 10:12:29;;;;;;;13.63;8.07;;;;;;;3.32;60.78;95473.81;5044639;28;20057;-75
2022/02/03 10:14:54;;;;;;;12.30;7.40;;;;;;;3.31;60.47;95464.16;5046109;28;20035;-77
2022/02/03 10:17:20;;;;;;;9.63;7.05;;;;;;;3.26;60.39;95476.97;5044179;28;20033;-76
2022/02/03 10:19:50;;;;;;;10.48;7.32;;;;;;;3.21;60.52;95464.97;5027545;28;20063;-76
2022/02/03 10:22:21;;;;;;;9.00;7.40;;;;;;;3.23;60.71;95470.13;5045871;28;20480;-76
2022/02/03 10:24:49;;;;;;;11.05;7.28;;;;;;;3.30;60.43;95467.81;5044103;28;20066;-77
2022/02/03 10:27:37;;;;;;;10.88;7.15;;;;;;;3.37;60.40;95470.78;5044700;28;20087;-76
2022/02/03 10:30:12;;;;;;;10.07;7.63;;;;;;;3.45;60.35;95470.97;5045455;28;20462;-76
2022/02/03 10:32:43;;;;;;;9.98;6.80;;;;;;;3.56;59.93;95470.84;5028071;28;20384;-77
2022/02/03 10:35:15;;;;;;;10.73;7.90;;;;;;;3.62;59.71;95469.50;5028253;28;20025;-77
2022/02/03 10:37:45;;;;;;;12.20;7.67;;;;;;;3.74;60.22;95480.84;5045485;28;20021;-77
2022/02/03 10:40:45;;;;;;;10.13;7.10;;;;;;;3.95;59.94;95474.63;5045963;28;20027;-77
2022/02/03 10:45:56;;;;;;;9.02;7.22;;;;;;;4.27;57.90;95462.16;5027633;28;20029;-76
2022/02/03 11:05:04;;;;;;;8.18;5.75;;;;;;;4.18;56.30;95451.38;5047585;28;20036;-76
2022/02/03 11:07:40;;;;;;;8.40;5.97;;;;;;;4.19;57.24;95457.53;5047500;28;20032;-76
2022/02/03 11:12:48;;;;;;;12.00;5.50;;;;;;;4.09;57.25;95468.13;5047652;28;20267;-76
2022/02/03 11:15:13;;;;;;;9.07;6.35;;;;;;;4.05;57.55;95467.53;5031553;28;20103;-76
2022/02/03 11:17:39;;;;;;;9.18;5.97;;;;;;;4.05;57.19;95456.06;5030364;28;20470;-75
2022/02/03 11:20:07;;;;;;;9.55;6.30;;;;;;;4.15;57.99;95453.44;5014349;28;20475;-76
2022/02/03 11:22:53;;;;;;;9.70;6.53;;;;;;;4.22;57.55;95445.78;5048624;28;20033;-75
2022/02/03 11:47:06;;;;;;;13.85;7.70;;;;;;;4.53;56.89;95449.16;5046689;28;20407;-76
2022/02/03 12:00:51;;;;;;;13.27;7.65;;;;;;;4.79;55.95;95445.09;5046350;28;20025;-76
2022/02/03 12:12:28;;;;;;;11.05;6.97;;;;;;;5.09;54.69;95453.91;5047563;28;20033;-77
2022/02/03 12:20:45;;;;;;;13.63;6.88;;;;;;;5.01;54.90;95459.94;5048133;28;20040;-76
2022/02/03 12:23:37;;;;;;;7.35;5.65;;;;;;;5.00;55.04;95462.75;5048189;28;20095;-77
2022/02/03 12:26:07;;;;;;;7.20;5.40;;;;;;;4.87;55.26;95465.69;5047301;28;20053;-76
2022/02/03 12:28:52;;;;;;;8.35;5.90;;;;;;;4.83;55.10;95462.47;5046905;28;20060;-76
2022/02/03 12:42:01;;;;;;;9.30;6.55;;;;;;;4.73;57.20;95465.13;5046700;28;20495;-74
2022/02/03 12:44:28;;;;;;;13.77;7.22;;;;;;;4.73;57.39;95477.56;5047180;28;20036;-76
2022/02/03 12:46:54;;;;;;;10.77;5.95;;;;;;;4.71;56.81;95480.34;5045546;28;20404;-76
2022/02/03 12:49:20;;;;;;;8.85;5.53;;;;;;;4.65;57.81;95462.31;5046377;28;20028;-76
2022/02/03 12:51:46;;;;;;;9.90;6.40;;;;;;;4.48;59.40;95475.34;5028505;28;20457;-76
2022/02/03 12:54:12;;;;;;;8.82;6.13;;;;;;;4.45;60.15;95470.25;5046652;28;20028;-75
2022/02/03 12:56:38;;;;;;;10.15;7.38;;;;;;;4.39;59.75;95479.63;5046610;28;20075;-77
2022/02/03 12:59:03;;;;;;;8.52;6.88;;;;;;;4.42;59.21;95481.16;5047347;28;20434;-76
2022/02/03 13:01:34;;;;;;;10.07;6.72;;;;;;;4.41;59.93;95477.69;5046674;28;20059;-76
2022/02/03 13:04:04;;;;;;;8.40;6.10;;;;;;;4.44;60.50;95477.41;5045441;28;20420;-76
2022/02/03 13:06:31;;;;;;;10.52;6.28;;;;;;;4.40;60.46;95483.13;5045867;28;20468;-77
2022/02/03 13:08:59;;;;;;;8.70;6.07;;;;;;;4.38;60.18;95488.59;5028160;28;20061;-77
2022/02/03 13:11:32;;;;;;;7.82;5.90;;;;;;;4.38;60.30;95491.25;5047288;28;20044;-76
2022/02/03 13:16:29;;;;;;;8.63;6.43;;;;;;;4.39;59.86;95492.06;5047168;28;20037;-77
2022/02/03 13:19:02;;;;;;;8.10;5.68;;;;;;;4.31;59.93;95512.19;5046290;28;20025;-77
2022/02/03 13:21:40;;;;;;;7.03;5.22;;;;;;;4.12;62.27;95515.63;5046517;28;20479;-75
2022/02/03 13:24:25;;;;;;;6.32;4.50;;;;;;;3.80;64.72;95506.88;5030026;28;20479;-75
2022/02/03 13:26:55;;;;;;;4.80;3.92;;;;;;;3.51;65.99;95512.88;5016745;28;20174;-76
2022/02/03 13:29:40;;;;;;;7.30;4.45;;;;;;;3.52;65.48;95518.97;5029501;28;20040;-78
2022/02/03 13:32:12;;;;;;;9.48;5.00;;;;;;;3.48;65.75;95512.28;5045024;28;20037;-78
2022/02/03 13:34:49;;;;;;;7.57;5.22;;;;;;;3.44;65.46;95515.19;5044835;28;20556;-77
2022/02/03 13:37:29;;;;;;;6.80;4.32;;;;;;;3.40;66.70;95518.22;5030151;28;20163;-77
2022/02/03 13:40:10;;;;;;;6.25;4.75;;;;;;;3.39;66.27;95522.69;5029586;28;20056;-77
2022/02/03 13:42:37;;;;;;;15.00;7.30;;;;;;;3.42;66.93;95519.78;5029686;28;20040;-77
2022/02/03 13:45:07;;;;;;;14.02;7.68;;;;;;;3.41;66.50;95518.09;5028325;28;20033;-77
2022/02/03 13:47:35;;;;;;;13.40;7.93;;;;;;;3.48;65.65;95514.94;5028211;28;20116;-77
2022/02/03 13:50:13;;;;;;;14.82;7.70;;;;;;;3.54;65.50;95515.25;5028960;28;20024;-77
2022/02/03 14:18:07;;;;;;;10.15;6.63;;;;;;;3.93;58.30;95532.31;5028807;28;20037;-77
2022/02/03 14:28:17;;;;;;;10.50;6.43;;;;;;;3.47;58.75;95540.59;5044503;28;20132;-77
2022/02/03 14:30:46;;;;;;;6.85;5.35;;;;;;;3.41;57.58;95533.16;5044323;28;20021;-76
2022/02/03 14:33:16;;;;;;;7.72;5.57;;;;;;;3.36;57.91;95545.97;5046414;28;20484;-76
2022/02/03 14:35:43;;;;;;;8.10;5.35;;;;;;;3.29;58.31;95543.81;5046974;28;20044;-77
2022/02/03 14:38:20;;;;;;;7.55;5.20;;;;;;;3.26;57.79;95553.84;5049759;28;20094;-76
2022/02/03 14:40:58;;;;;;;7.18;4.90;;;;;;;3.07;58.45;95550.09;5049471;28;20517;-77
2022/02/03 14:43:24;;;;;;;7.05;5.50;;;;;;;3.08;58.71;95563.22;5049385;28;20040;-78
2022/02/03 14:45:49;;;;;;;7.80;5.15;;;;;;;3.09;59.26;95562.22;5049874;28;20021;-77
2022/02/03 14:48:15;;;;;;;7.78;5.50;;;;;;;3.14;58.35;95561.03;5047562;28;20036;-77
2022/02/03 14:50:43;;;;;;;8.52;5.22;;;;;;;3.01;58.28;95561.19;5049951;28;20031;-77
2022/02/03 14:53:20;;;;;;;7.55;4.85;;;;;;;3.04;58.75;95550.34;5048994;28;20112;-76
2022/02/03 14:58:30;;;;;;;11.02;6.30;;;;;;;2.94;59.16;95559.06;5047895;28;20040;-78
2022/02/03 15:00:57;;;;;;;8.77;6.28;;;;;;;2.87;58.77;95557.03;5048855;28;20037;-76
2022/02/03 15:03:24;;;;;;;9.55;6.10;;;;;;;2.80;58.50;95560.19;5031588;28;20523;-77
2022/02/03 15:05:50;;;;;;;9.77;5.97;;;;;;;2.78;58.00;95572.72;5047400;28;20036;-79
2022/02/03 15:08:21;;;;;;;10.57;6.32;;;;;;;2.74;58.34;95565.97;5049376;28;20062;-77
2022/02/03 15:10:53;;;;;;;14.68;6.82;;;;;;;2.66;57.58;95569.25;5048564;28;20044;-78
2022/02/03 15:15:50;;;;;;;8.70;5.53;;;;;;;2.44;56.96;95591.31;5047639;28;20033;-78
2022/02/03 15:18:17;;;;;;;8.35;5.72;;;;;;;2.43;56.87;95584.34;5047327;28;20029;-77
2022/02/03 15:20:43;;;;;;;8.82;5.53;;;;;;;2.39;56.58;95588.19;5048061;28;20033;-77
2022/02/03 15:23:08;;;;;;;8.23;5.68;;;;;;;2.41;56.84;95596.88;5047291;28;20021;-78
2022/02/03 15:25:34;;;;;;;9.27;5.47;;;;;;;2.43;56.77;95594.94;5049113;28;20025;-77
2022/02/03 15:27:59;;;;;;;8.68;5.35;;;;;;;2.41;56.47;95597.72;5030395;28;20659;-77
2022/02/03 15:30:25;;;;;;;8.65;5.38;;;;;;;2.39;56.40;95593.50;5047315;28;20075;-78
2022/02/03 15:32:51;;;;;;;7.88;5.70;;;;;;;2.42;57.04;95603.88;5048374;28;20075;-77
2022/02/03 15:35:25;;;;;;;7.72;5.72;;;;;;;2.41;57.08;95607.44;5047248;28;20353;-77
2022/02/03 15:37:52;;;;;;;8.63;6.03;;;;;;;2.41;57.61;95602.16;5047888;28;20115;-76
2022/02/03 15:40:23;;;;;;;9.75;5.93;;;;;;;2.40;57.78;95613.72;5047008;28;20628;-78
2022/02/03 15:43:12;;;;;;;12.05;6.35;;;;;;;2.42;57.54;95609.16;5047516;28;20448;-77
2022/02/03 15:45:43;;;;;;;8.32;6.03;;;;;;;2.42;57.92;95625.88;5047203;28;20029;-78
2022/02/03 16:17:06;;;;;;;9.13;6.10;;;;;;;1.83;58.11;95678.03;5048274;28;20517;-76
2022/02/03 16:23:06;;;;;;;7.80;5.57;;;;;;;1.80;58.92;95692.34;5046832;28;20025;-77
2022/02/03 16:42:07;;;;;;;7.97;6.00;;;;;;;1.52;60.14;95744.63;5047025;28;20192;-76
2022/02/03 16:54:41;;;;;;;10.85;7.68;;;;;;;1.17;60.74;95788.53;5046979;28;20025;-77
2022/02/03 16:57:17;;;;;;;10.75;7.13;;;;;;;1.11;61.04;95784.50;5047420;28;20033;-77
2022/02/03 16:59:56;;;;;;;10.20;7.22;;;;;;;1.08;61.85;95782.09;5045877;28;20035;-76
2022/02/03 17:02:23;;;;;;;12.82;6.93;;;;;;;1.06;61.36;95785.81;5046616;28;20044;-78
2022/02/03 17:04:49;;;;;;;11.00;6.68;;;;;;;1.02;61.36;95790.47;5045607;28;20483;-76
2022/02/03 17:07:14;;;;;;;10.73;7.03;;;;;;;0.94;61.46;95791.00;5046272;28;20032;-76
2022/02/03 17:09:40;;;;;;;12.80;7.68;;;;;;;0.89;61.71;95790.47;5028798;28;20322;-76
2022/02/03 17:12:08;;;;;;;11.85;7.35;;;;;;;0.86;62.41;95796.84;5044550;28;20025;-78
2022/02/03 17:14:34;;;;;;;11.70;7.45;;;;;;;0.88;62.23;95793.22;5045457;28;20025;-77
2022/02/03 17:16:59;;;;;;;11.80;7.50;;;;;;;0.88;62.04;95803.78;5028463;28;20029;-76
2022/02/03 17:19:25;;;;;;;11.07;7.50;;;;;;;0.85;61.49;95803.06;5045031;28;20039;-75
2022/02/03 17:21:50;;;;;;;12.43;7.63;;;;;;;0.89;62.15;95816.91;5045366;28;20021;-76
2022/02/03 17:24:16;;;;;;;11.65;7.65;;;;;;;0.91;62.00;95819.44;5046041;28;20041;-77
2022/02/03 17:27:33;;;;;;;12.10;7.35;;;;;;;0.88;62.17;95819.63;5046878;28;20021;-76
2022/02/03 17:55:06;;;;;;;11.88;8.25;;;;;;;0.70;63.34;95867.50;5044499;28;20094;-77
2022/02/03 18:06:25;;;;;;;10.02;7.45;;;;;;;0.92;62.36;95879.25;5031988;28;20087;-77
2022/02/03 18:11:00;;;;;;;16.45;8.85;;;;;;;1.03;62.56;95874.03;5045369;28;20092;-76
2022/02/03 18:51:02;;;;;;;15.70;8.48;;;;;;;0.89;62.26;95882.91;5044064;28;20451;-76
2022/02/03 18:56:19;;;;;;;14.10;8.93;;;;;;;0.89;61.46;95890.84;5045106;28;20021;-78
2022/02/03 18:59:05;;;;;;;16.63;9.02;;;;;;;0.87;61.67;95898.06;5017769;28;20112;-76
2022/02/03 19:23:48;;;;;;;11.95;7.45;;;;;;;0.58;61.43;95893.78;5048886;28;20083;-78
2022/02/03 19:56:21;;;;;;;14.68;7.70;;;;;;;0.66;60.87;95892.44;5047081;28;20033;-76
2022/02/03 20:04:53;;;;;;;12.27;7.47;;;;;;;-0.01;63.34;95892.38;5047399;28;20040;-77
2022/02/03 20:07:44;;;;;;;22.33;9.90;;;;;;;-0.05;63.14;95890.91;5048168;28;20461;-77
2022/02/03 20:10:24;;;;;;;17.88;9.07;;;;;;;0.02;61.86;95886.91;5047213;28;20041;-78
2022/02/03 20:12:51;;;;;;;18.45;9.10;;;;;;;-0.10;62.91;95892.97;5047702;28;20099;-77
2022/02/03 20:15:20;;;;;;;13.43;9.02;;;;;;;-0.04;62.48;95893.44;5048428;28;20036;-77
2022/02/03 20:17:45;;;;;;;22.23;10.90;;;;;;;-0.06;62.49;95889.19;5046904;28;20048;-77
2022/02/03 20:20:11;;;;;;;22.95;11.50;;;;;;;-0.05;62.08;95893.53;5048178;28;20469;-78
2022/02/03 20:22:39;;;;;;;24.65;10.38;;;;;;;-0.11;62.16;95886.84;5046007;28;20348;-77
2022/02/03 20:25:06;;;;;;;24.83;11.45;;;;;;;-0.05;62.64;95885.63;5046772;28;20108;-77
2022/02/03 20:27:32;;;;;;;19.92;9.65;;;;;;;-0.04;61.54;95889.94;5046933;28;20028;-77
2022/02/03 20:29:57;;;;;;;16.77;9.18;;;;;;;-0.10;62.93;95900.88;5045866;28;20037;-76
2022/02/03 20:32:24;;;;;;;14.27;8.73;;;;;;;-0.12;62.37;95898.34;5047572;28;20103;-75
2022/02/03 20:34:50;;;;;;;14.43;7.40;;;;;;;-0.21;62.59;95912.97;5046825;28;20051;-76
2022/02/03 20:37:15;;;;;;;13.10;7.60;;;;;;;-0.22;63.06;95903.38;5047814;28;20470;-77
2022/02/03 20:39:42;;;;;;;15.05;8.35;;;;;;;-0.17;63.02;95906.56;5029031;28;20024;-76
2022/02/03 20:42:08;;;;;;;12.90;8.00;;;;;;;-0.12;62.22;95908.91;5047260;28;20021;-77
2022/02/03 20:44:33;;;;;;;12.50;6.97;;;;;;;-0.14;61.96;95901.09;5045952;28;20029;-76
2022/02/03 20:46:59;;;;;;;11.52;6.85;;;;;;;-0.27;62.75;95900.19;5046734;28;20017;-76
2022/02/03 20:49:24;;;;;;;16.77;7.32;;;;;;;-0.20;62.78;95890.94;5046304;28;20029;-77
2022/02/03 20:51:50;;;;;;;13.15;6.95;;;;;;;-0.11;62.19;95899.22;5046570;28;20029;-77
2022/02/03 20:54:15;;;;;;;16.48;8.80;;;;;;;-0.15;62.28;95894.13;5046211;28;20025;-78
2022/02/03 20:56:42;;;;;;;17.02;9.02;;;;;;;-0.17;62.23;95901.28;5046601;28;20029;-76
2022/02/03 20:59:10;;;;;;;22.25;11.88;;;;;;;-0.16;62.29;95905.59;5046876;28;20079;-77
2022/02/03 21:01:38;;;;;;;23.00;12.15;;;;;;;-0.08;61.09;95909.56;5046650;28;20025;-75
2022/02/03 21:04:10;;;;;;;20.17;11.77;;;;;;;-0.07;61.54;95914.72;5046457;28;20033;-77
2022/02/03 21:06:35;;;;;;;24.77;10.60;;;;;;;-0.10;60.96;95914.94;5045921;28;20284;-79
2022/02/03 21:09:02;;;;;;;22.30;11.23;;;;;;;-0.19;61.25;95916.34;5028097;28;20025;-76
2022/02/03 21:11:27;;;;;;;23.10;10.25;;;;;;;-0.32;61.58;95916.28;5012966;28;20045;-76
2022/02/03 21:13:54;;;;;;;19.75;9.45;;;;;;;-0.33;61.77;95919.03;5046177;28;20036;-77
2022/02/03 21:16:20;;;;;;;19.60;9.27;;;;;;;-0.30;61.56;95910.91;5045581;28;20545;-77
2022/02/03 21:18:46;;;;;;;13.48;7.50;;;;;;;-0.35;61.92;95918.25;5045092;28;20060;-77
2022/02/03 21:21:11;;;;;;;16.17;7.70;;;;;;;-0.33;61.94;95909.34;5045002;28;20475;-77
2022/02/03 21:23:37;;;;;;;12.30;7.10;;;;;;;-0.29;61.19;95905.53;5028746;28;20045;-77
2022/02/03 21:26:05;;;;;;;14.20;7.45;;;;;;;-0.24;61.05;95912.34;5028187;28;20029;-75
2022/02/03 21:28:33;;;;;;;18.35;8.80;;;;;;;-0.33;61.23;95913.75;5047300;28;20432;-77
2022/02/03 21:31:00;;;;;;;15.65;7.70;;;;;;;-0.40;61.52;95913.28;5045803;28;20343;-75
2022/02/03 21:33:31;;;;;;;13.32;8.15;;;;;;;-0.39;61.55;95917.63;5028915;28;20079;-76
2022/02/03 21:36:05;;;;;;;16.50;8.43;;;;;;;-0.29;61.08;95913.47;5044683;28;20511;-77
2022/02/03 21:38:30;;;;;;;19.10;9.80;;;;;;;-0.27;61.14;95913.34;5045162;28;20120;-77
2022/02/03 21:40:56;;;;;;;21.17;9.63;;;;;;;-0.30;61.07;95903.88;5046026;28;20082;-77
2022/02/03 21:43:21;;;;;;;16.98;9.00;;;;;;;-0.22;61.06;95894.59;5044406;28;20024;-77
2022/02/03 21:45:47;;;;;;;20.17;9.25;;;;;;;-0.23;60.56;95898.19;5044761;28;20024;-77
2022/02/03 21:48:12;;;;;;;19.90;9.55;;;;;;;-0.29;61.17;95891.53;5044554;28;20083;-77
2022/02/03 21:50:40;;;;;;;19.38;8.90;;;;;;;-0.24;60.74;95894.69;5045085;28;20419;-77
2022/02/03 21:53:15;;;;;;;13.85;7.40;;;;;;;-0.26;61.26;95886.91;5028135;28;20021;-77
2022/02/03 21:55:40;;;;;;;10.05;6.65;;;;;;;-0.29;61.34;95892.38;5046247;28;20048;-76
2022/02/03 21:58:06;;;;;;;10.73;6.25;;;;;;;-0.27;61.44;95898.41;5028017;28;20415;-76
2022/02/03 22:00:31;;;;;;;12.05;6.15;;;;;;;-0.19;61.29;95895.25;5044374;28;20498;-77
2022/02/03 22:02:57;;;;;;;10.75;6.18;;;;;;;-0.11;60.69;95888.66;5046609;28;20029;-76
2022/02/03 22:05:22;;;;;;;8.07;5.47;;;;;;;-0.10;61.09;95887.72;5044012;28;20074;-76
2022/02/03 22:07:47;;;;;;;9.00;5.45;;;;;;;-0.11;60.05;95884.22;5045059;28;20059;-76
2022/02/03 22:10:18;;;;;;;8.25;5.43;;;;;;;-0.14;60.36;95885.28;5045184;28;20053;-75
2022/02/03 22:12:45;;;;;;;12.38;5.80;;;;;;;-0.40;59.86;95882.50;5028791;28;20027;-77
2022/02/03 22:15:10;;;;;;;11.38;6.40;;;;;;;-0.36;59.74;95887.59;5044230;28;20090;-77
2022/02/03 22:17:36;;;;;;;15.40;8.07;;;;;;;-0.34;59.50;95885.72;5044627;28;20063;-75
2022/02/03 22:20:06;;;;;;;15.90;8.07;;;;;;;-0.34;59.68;95886.56;5028301;28;20029;-75
2022/02/03 22:22:48;;;;;;;23.95;11.10;;;;;;;-0.27;59.37;95892.28;5028383;28;20222;-75
2022/02/03 22:46:55;;;;;;;9.57;5.80;;;;;;;-0.35;57.77;95915.63;5054417;28;20124;-76
2022/02/03 22:49:09;;;;;;;11.35;6.07;;;;;;;-0.37;57.81;95915.72;5045149;28;20124;-76